createdAt,value
2022-12-18T00:01:54.273Z,67.66
2022-12-18T00:04:25.722Z,68.01
2022-12-18T00:06:55.231Z,67.62
2022-12-18T00:09:24.838Z,67.15
2022-12-18T00:11:54.536Z,67.41
2022-12-18T00:14:26.589Z,67.55
2022-12-18T00:16:56.044Z,67.50
2022-12-18T00:19:25.560Z,67.55
2022-12-18T00:21:54.995Z,67.04
2022-12-18T00:24:25.018Z,66.88
2022-12-18T00:26:54.462Z,66.72
2022-12-18T00:29:26.509Z,66.96
2022-12-18T00:31:55.996Z,67.28
2022-12-18T00:34:25.504Z,67.22
2022-12-18T00:36:54.955Z,67.17
2022-12-18T00:39:24.434Z,66.81
2022-12-18T00:42:06.326Z,67.06
2022-12-18T00:44:38.371Z,67.03
2022-12-18T00:47:08.030Z,67.00
2022-12-18T00:49:37.471Z,66.89
2022-12-18T00:52:06.904Z,66.62
2022-12-18T00:54:36.361Z,66.64
2022-12-18T00:57:05.781Z,66.75
2022-12-18T00:59:37.808Z,66.75
2022-12-18T01:02:07.393Z,66.87
2022-12-18T01:04:36.974Z,67.04
2022-12-18T01:07:06.402Z,66.99
2022-12-18T01:09:35.844Z,67.28
2022-12-18T01:12:05.274Z,67.54
2022-12-18T01:14:34.744Z,67.30
2022-12-18T01:17:06.738Z,67.12
2022-12-18T01:19:36.283Z,67.42
2022-12-18T01:22:05.706Z,67.16
2022-12-18T01:24:35.140Z,67.02
2022-12-18T01:27:04.543Z,67.03
2022-12-18T01:29:34.042Z,67.29
2022-12-18T01:32:06.150Z,67.96
2022-12-18T01:34:35.641Z,67.54
2022-12-18T01:37:06.158Z,67.76
2022-12-18T01:39:35.787Z,67.73
2022-12-18T01:42:06.343Z,67.56
2022-12-18T01:45:23.192Z,67.45
2022-12-18T01:47:56.466Z,67.44
2022-12-18T01:50:27.407Z,67.48
2022-12-18T01:52:56.976Z,66.92
2022-12-18T01:55:27.646Z,67.04
2022-12-18T01:57:58.880Z,67.43
2022-12-18T02:00:28.392Z,67.68
2022-12-18T02:03:00.483Z,69.12
2022-12-18T02:05:42.864Z,69.46
2022-12-18T02:08:14.147Z,68.68
2022-12-18T02:10:48.129Z,69.22
2022-12-18T02:13:22.946Z,68.64
2022-12-18T02:15:57.175Z,67.82
2022-12-18T02:18:31.270Z,67.42
2022-12-18T02:21:03.368Z,67.40
2022-12-18T02:23:43.422Z,66.89
2022-12-18T02:26:19.390Z,66.75
2022-12-18T02:28:50.019Z,66.48
2022-12-18T02:31:25.216Z,66.69
2022-12-18T02:33:55.280Z,67.16
2022-12-18T02:36:24.719Z,67.07
2022-12-18T02:38:54.170Z,66.80
2022-12-18T02:41:27.662Z,67.03
2022-12-18T02:43:59.088Z,66.82
2022-12-18T02:46:33.944Z,67.05
2022-12-18T02:49:08.692Z,66.93
2022-12-18T02:51:42.307Z,67.05
2022-12-18T02:54:13.842Z,67.01
2022-12-18T02:56:47.682Z,66.91
2022-12-18T02:59:17.674Z,66.99
2022-12-18T03:01:49.790Z,66.98
2022-12-18T03:04:22.319Z,66.77
2022-12-18T03:06:53.539Z,67.14
2022-12-18T03:09:25.133Z,67.07
2022-12-18T03:12:19.694Z,66.80
2022-12-18T03:14:49.120Z,67.15
2022-12-18T03:17:19.520Z,68.49
2022-12-18T03:19:49.135Z,68.47
2022-12-18T03:22:18.538Z,67.87
2022-12-18T03:24:48.436Z,67.40
2022-12-18T03:27:22.528Z,67.21
2022-12-18T03:29:52.842Z,66.66
2022-12-18T03:32:24.476Z,66.83
2022-12-18T03:34:54.012Z,66.82
2022-12-18T03:37:23.519Z,66.52
2022-12-18T03:39:52.963Z,66.37
2022-12-18T03:42:26.974Z,66.26
2022-12-18T03:44:58.912Z,66.17
2022-12-18T03:47:30.122Z,66.13
2022-12-18T03:50:01.563Z,66.17
2022-12-18T03:52:32.036Z,66.46
2022-12-18T03:55:01.758Z,66.26
2022-12-18T03:57:34.105Z,66.21
2022-12-18T04:00:04.333Z,66.17
2022-12-18T04:02:33.900Z,66.30
2022-12-18T04:05:05.269Z,66.33
2022-12-18T04:07:34.715Z,66.42
2022-12-18T04:10:05.506Z,66.18
2022-12-18T04:12:37.514Z,66.49
2022-12-18T04:15:07.859Z,66.48
2022-12-18T04:17:37.540Z,66.42
2022-12-18T04:20:07.938Z,66.57
2022-12-18T04:22:37.392Z,66.55
2022-12-18T04:25:07.832Z,66.60
2022-12-18T04:27:39.849Z,66.47
2022-12-18T04:30:10.668Z,67.61
2022-12-18T04:32:39.912Z,67.91
2022-12-18T04:35:11.585Z,67.62
2022-12-18T04:37:41.042Z,66.79
2022-12-18T04:40:11.615Z,66.77
2022-12-18T04:42:43.917Z,67.83
2022-12-18T04:45:13.916Z,68.33
2022-12-18T04:47:43.332Z,69.45
2022-12-18T04:50:12.919Z,69.49
2022-12-18T04:52:42.341Z,70.05
2022-12-18T04:55:12.071Z,70.75
2022-12-18T04:57:44.080Z,70.69
2022-12-18T05:00:14.783Z,71.38
2022-12-18T05:02:44.345Z,71.04
2022-12-18T05:05:14.154Z,69.72
2022-12-18T05:07:43.852Z,69.08
2022-12-18T05:10:13.308Z,68.42
2022-12-18T05:12:57.619Z,68.02
2022-12-18T05:15:27.389Z,67.52
2022-12-18T05:17:58.014Z,67.66
2022-12-18T05:20:28.039Z,67.62
2022-12-18T05:22:57.890Z,67.49
2022-12-18T05:25:27.489Z,68.68
2022-12-18T05:27:59.543Z,68.94
2022-12-18T05:30:29.724Z,69.30
2022-12-18T05:32:59.183Z,69.53
2022-12-18T05:35:28.590Z,71.30
2022-12-18T05:37:58.326Z,73.14
2022-12-18T05:40:27.750Z,73.46
2022-12-18T05:43:00.473Z,74.36
2022-12-18T05:45:30.610Z,74.90
2022-12-18T05:48:00.062Z,75.02
2022-12-18T05:50:29.519Z,75.63
2022-12-18T05:52:58.955Z,75.92
2022-12-18T05:55:28.395Z,75.32
2022-12-18T05:58:00.430Z,75.27
2022-12-18T06:00:30.045Z,74.38
2022-12-18T06:03:00.174Z,73.39
2022-12-18T06:05:29.871Z,73.31
2022-12-18T06:07:59.492Z,72.20
2022-12-18T06:10:29.099Z,72.68
2022-12-18T06:13:01.295Z,72.32
2022-12-18T06:15:30.904Z,72.30
2022-12-18T06:18:00.562Z,72.42
2022-12-18T06:20:33.414Z,72.09
2022-12-18T06:23:03.447Z,71.83
2022-12-18T06:25:32.924Z,72.16
2022-12-18T06:28:05.037Z,71.74
2022-12-18T06:30:34.678Z,72.68
2022-12-18T06:33:04.120Z,73.61
2022-12-18T06:35:33.560Z,73.72
2022-12-18T06:38:04.627Z,74.30
2022-12-18T06:40:34.084Z,74.17
2022-12-18T06:43:06.097Z,74.49
2022-12-18T06:45:35.578Z,74.29
2022-12-18T06:48:05.100Z,73.23
2022-12-18T06:50:34.611Z,74.00
2022-12-18T06:53:04.173Z,75.66
2022-12-18T06:55:33.794Z,75.63
2022-12-18T06:58:05.820Z,75.76
2022-12-18T07:00:35.295Z,75.43
2022-12-18T07:03:04.821Z,74.82
2022-12-18T07:05:34.284Z,75.49
2022-12-18T07:08:03.746Z,76.50
2022-12-18T07:10:33.269Z,77.21
2022-12-18T07:13:02.728Z,77.16
2022-12-18T07:15:34.775Z,77.05
2022-12-18T07:18:04.660Z,76.93
2022-12-18T07:20:34.094Z,77.22
2022-12-18T07:23:06.156Z,76.57
2022-12-18T07:25:37.963Z,75.27
2022-12-18T07:28:08.874Z,74.29
2022-12-18T07:30:43.756Z,73.34
2022-12-18T07:33:13.176Z,73.17
2022-12-18T07:35:43.427Z,72.37
2022-12-18T07:38:12.854Z,71.45
2022-12-18T07:40:42.281Z,71.19
2022-12-18T07:43:11.710Z,69.96
2022-12-18T07:45:43.740Z,69.19
2022-12-18T07:48:13.331Z,68.67
2022-12-18T07:50:42.751Z,68.70
2022-12-18T07:53:12.212Z,68.47
2022-12-18T07:56:05.539Z,68.84
2022-12-18T07:58:32.027Z,68.63
2022-12-18T08:01:09.036Z,69.75
2022-12-18T08:03:38.926Z,70.67
2022-12-18T08:06:10.420Z,70.28
2022-12-18T08:08:41.892Z,69.71
2022-12-18T08:11:11.403Z,68.78
2022-12-18T08:13:41.211Z,68.79
2022-12-18T08:16:13.763Z,67.91
2022-12-18T08:18:43.238Z,67.32
2022-12-18T08:21:13.082Z,66.76
2022-12-18T08:23:43.644Z,67.37
2022-12-18T08:26:13.119Z,66.59
2022-12-18T08:28:42.592Z,65.88
2022-12-18T08:31:15.033Z,65.89
2022-12-18T08:33:44.835Z,66.02
2022-12-18T08:36:14.431Z,65.99
2022-12-18T08:38:43.872Z,66.23
2022-12-18T08:41:14.631Z,66.42
2022-12-18T08:43:56.648Z,66.38
2022-12-18T08:46:29.253Z,66.62
2022-12-18T08:48:59.066Z,66.30
2022-12-18T08:51:28.504Z,66.57
2022-12-18T08:53:57.945Z,66.59
2022-12-18T08:56:27.375Z,66.29
2022-12-18T08:58:56.930Z,65.96
2022-12-18T09:01:29.413Z,65.65
2022-12-18T09:03:59.004Z,65.37
2022-12-18T09:06:28.487Z,65.66
2022-12-18T09:08:57.924Z,66.00
2022-12-18T09:11:28.542Z,65.87
2022-12-18T09:13:58.097Z,66.92
2022-12-18T09:16:32.610Z,68.95
2022-12-18T09:19:02.924Z,69.44
2022-12-18T09:21:36.064Z,68.81
2022-12-18T09:24:09.093Z,68.23
2022-12-18T09:26:38.693Z,67.67
2022-12-18T09:29:10.234Z,68.22
2022-12-18T09:31:42.264Z,70.05
2022-12-18T09:34:11.716Z,69.60
2022-12-18T09:36:41.874Z,68.66
2022-12-18T09:39:13.209Z,67.00
2022-12-18T09:41:48.211Z,67.08
2022-12-18T09:44:21.924Z,65.37
2022-12-18T09:46:57.488Z,65.53
2022-12-18T09:49:27.550Z,66.47
2022-12-18T09:51:58.535Z,65.89
2022-12-18T09:54:29.217Z,65.36
2022-12-18T09:56:58.718Z,65.25
2022-12-18T09:59:29.196Z,64.47
2022-12-18T10:02:02.095Z,64.54
2022-12-18T10:04:32.005Z,64.84
2022-12-18T10:07:08.751Z,65.13
2022-12-18T10:09:41.158Z,64.50
2022-12-18T10:12:12.487Z,65.09
2022-12-18T10:14:46.906Z,64.69
2022-12-18T10:17:23.888Z,65.75
2022-12-18T10:19:55.427Z,68.47
2022-12-18T10:22:43.223Z,66.67
2022-12-18T10:25:20.562Z,65.99
2022-12-18T10:27:49.975Z,66.65
2022-12-18T10:30:22.633Z,65.80
2022-12-18T10:32:55.199Z,65.03
2022-12-18T10:35:29.757Z,66.87
2022-12-18T10:38:26.914Z,67.77
2022-12-18T10:40:58.433Z,69.47
2022-12-18T10:43:29.464Z,70.19
2022-12-18T10:46:15.539Z,70.01
2022-12-18T10:48:53.152Z,71.88
2022-12-18T10:51:27.255Z,72.69
2022-12-18T10:54:01.495Z,72.32
2022-12-18T10:56:33.033Z,71.69
2022-12-18T10:59:03.690Z,70.23
2022-12-18T11:01:48.760Z,68.18
2022-12-18T11:04:23.696Z,66.75
2022-12-18T11:06:57.599Z,66.03
2022-12-18T11:09:27.946Z,64.98
2022-12-18T11:11:58.210Z,64.44
2022-12-18T11:14:28.529Z,65.56
2022-12-18T11:17:24.320Z,66.92
2022-12-18T11:19:50.779Z,67.19
2022-12-18T11:22:23.998Z,65.98
2022-12-18T11:25:30.105Z,64.72
2022-12-18T11:27:51.375Z,63.12
2022-12-18T11:30:25.701Z,65.39
2022-12-18T11:32:55.388Z,64.94
2022-12-18T11:35:36.039Z,63.97
2022-12-18T11:38:08.337Z,63.91
2022-12-18T11:40:41.499Z,66.83
2022-12-18T11:43:13.643Z,67.13
2022-12-18T11:45:44.975Z,67.92
2022-12-18T11:48:18.176Z,67.16
2022-12-18T11:50:53.568Z,67.25
2022-12-18T11:53:23.140Z,67.56
2022-12-18T11:56:09.455Z,67.53
2022-12-18T11:58:47.469Z,66.58
2022-12-18T12:01:22.134Z,65.85
2022-12-18T12:04:00.343Z,65.44
2022-12-18T12:06:35.607Z,64.60
2022-12-18T12:09:08.755Z,64.27
2022-12-18T12:11:43.542Z,63.63
2022-12-18T12:14:20.917Z,63.41
2022-12-18T12:16:52.980Z,62.69
2022-12-18T12:19:30.856Z,63.02
2022-12-18T12:22:13.238Z,63.24
2022-12-18T12:24:50.711Z,62.79
2022-12-18T12:27:24.197Z,63.12
2022-12-18T12:30:00.266Z,63.12
2022-12-18T12:32:37.224Z,62.77
2022-12-18T12:35:15.359Z,62.52
2022-12-18T12:37:51.044Z,62.76
2022-12-18T12:40:50.193Z,62.99
2022-12-18T12:43:19.521Z,64.44
2022-12-18T12:45:50.888Z,65.11
2022-12-18T12:48:24.532Z,65.63
2022-12-18T12:50:54.313Z,66.58
2022-12-18T12:53:31.489Z,67.71
2022-12-18T12:56:01.005Z,67.60
2022-12-18T12:58:35.319Z,67.69
2022-12-18T13:01:15.299Z,68.21
2022-12-18T13:03:55.629Z,68.46
2022-12-18T13:06:32.282Z,70.35
2022-12-18T13:09:05.109Z,70.94
2022-12-18T13:11:59.549Z,71.63
2022-12-18T13:14:33.840Z,71.12
2022-12-18T13:17:18.973Z,72.06
2022-12-18T13:19:48.474Z,71.99
2022-12-18T13:22:24.956Z,71.64
2022-12-18T13:24:57.066Z,72.88
2022-12-18T13:28:06.631Z,72.72
2022-12-18T13:30:57.245Z,72.14
2022-12-18T13:34:09.442Z,73.07
2022-12-18T13:36:36.241Z,74.21
2022-12-18T13:39:37.273Z,73.66
2022-12-18T13:42:49.350Z,73.17
2022-12-18T13:45:42.964Z,72.39
2022-12-18T13:48:23.485Z,73.64
2022-12-18T13:50:56.080Z,73.74
2022-12-18T13:53:27.802Z,73.75
2022-12-18T13:55:57.285Z,74.92
2022-12-18T13:58:26.751Z,74.37
2022-12-18T14:01:00.370Z,73.97
2022-12-18T14:03:31.347Z,72.24
2022-12-18T14:06:02.759Z,70.94
2022-12-18T14:08:36.793Z,71.04
2022-12-18T14:11:07.810Z,71.17
2022-12-18T14:13:40.673Z,71.67
2022-12-18T14:16:16.502Z,71.59
2022-12-18T14:18:48.656Z,72.58
2022-12-18T14:21:23.378Z,73.09
2022-12-18T14:23:52.892Z,73.50
2022-12-18T14:26:25.131Z,74.50
2022-12-18T14:28:54.890Z,75.11
2022-12-18T14:31:28.027Z,74.96
2022-12-18T14:33:57.584Z,74.58
2022-12-18T14:36:27.854Z,75.12
2022-12-18T14:38:57.651Z,76.12
2022-12-18T14:41:27.443Z,75.70
2022-12-18T14:43:57.747Z,76.01
2022-12-18T14:46:36.589Z,76.55
2022-12-18T14:49:07.497Z,76.82
2022-12-18T14:51:36.999Z,77.56
2022-12-18T14:54:08.939Z,77.34
2022-12-18T14:56:39.132Z,77.21
2022-12-18T14:59:09.644Z,77.30
2022-12-18T15:01:42.802Z,77.40
2022-12-18T15:04:27.466Z,76.73
2022-12-18T15:07:07.567Z,76.64
2022-12-18T15:09:37.396Z,76.96
2022-12-18T15:12:07.377Z,77.25
2022-12-18T15:14:38.600Z,78.04
2022-12-18T15:17:20.054Z,77.50
2022-12-18T15:19:49.998Z,76.98
2022-12-18T15:22:24.443Z,74.70
2022-12-18T15:24:53.993Z,73.64
2022-12-18T15:27:28.617Z,72.73
2022-12-18T15:30:22.387Z,72.35
2022-12-18T15:32:55.560Z,72.00
2022-12-18T15:35:25.910Z,71.17
2022-12-18T15:37:55.590Z,71.63
2022-12-18T15:40:25.767Z,71.14
2022-12-18T15:43:09.146Z,70.14
2022-12-18T15:45:38.652Z,70.74
2022-12-18T15:48:18.926Z,70.29
2022-12-18T15:50:48.382Z,69.66
2022-12-18T15:53:17.844Z,69.47
2022-12-18T15:56:01.256Z,69.32
2022-12-18T15:58:30.962Z,69.79
2022-12-18T16:01:00.503Z,69.52
2022-12-18T16:03:32.669Z,69.98
2022-12-18T16:06:04.075Z,70.39
2022-12-18T16:08:33.789Z,70.16
2022-12-18T16:11:03.432Z,70.11
2022-12-18T16:13:32.882Z,71.21
2022-12-18T16:16:02.389Z,70.56
2022-12-18T16:18:34.472Z,71.02
2022-12-18T16:21:03.953Z,71.83
2022-12-18T16:23:33.376Z,71.55
2022-12-18T16:26:02.841Z,70.89
2022-12-18T16:28:32.307Z,71.11
2022-12-18T16:31:01.860Z,70.57
2022-12-18T16:33:33.934Z,70.06
2022-12-18T16:36:03.395Z,70.28
2022-12-18T16:38:32.867Z,70.74
2022-12-18T16:41:30.034Z,70.63
2022-12-18T16:43:59.482Z,70.16
2022-12-18T16:46:29.111Z,70.37
2022-12-18T16:49:01.894Z,70.38
2022-12-18T16:51:31.403Z,69.92
2022-12-18T16:54:02.984Z,69.72
2022-12-18T16:56:35.960Z,69.16
2022-12-18T16:59:06.187Z,70.07
2022-12-18T17:01:35.748Z,70.99
2022-12-18T17:04:08.718Z,70.50
2022-12-18T17:06:39.082Z,70.52
2022-12-18T17:09:09.669Z,70.75
2022-12-18T17:11:39.273Z,70.77
2022-12-18T17:14:12.841Z,71.06
2022-12-18T17:16:42.304Z,71.04
2022-12-18T17:19:17.254Z,71.65
2022-12-18T17:21:47.055Z,72.17
2022-12-18T17:24:16.511Z,73.84
2022-12-18T17:26:47.028Z,73.42
2022-12-18T17:29:20.200Z,73.18
2022-12-18T17:31:50.902Z,73.46
2022-12-18T17:34:23.385Z,73.58
2022-12-18T17:36:52.856Z,73.61
2022-12-18T17:39:22.783Z,73.53
2022-12-18T17:41:52.468Z,73.72
2022-12-18T17:44:21.964Z,74.15
2022-12-18T17:46:51.480Z,74.13
2022-12-18T17:49:23.708Z,75.82
2022-12-18T17:51:53.867Z,75.74
2022-12-18T17:54:23.390Z,76.33
2022-12-18T17:56:52.849Z,76.42
2022-12-18T17:59:22.650Z,76.93
2022-12-18T18:01:52.347Z,77.03
2022-12-18T18:04:24.605Z,77.68
2022-12-18T18:06:54.156Z,77.58
2022-12-18T18:09:23.665Z,77.32
2022-12-18T18:12:05.820Z,77.12
2022-12-18T18:14:35.408Z,76.59
2022-12-18T18:17:05.306Z,75.43
2022-12-18T18:19:37.474Z,76.12
2022-12-18T18:22:09.069Z,75.72
2022-12-18T18:24:38.706Z,75.95
2022-12-18T18:27:08.200Z,76.36
2022-12-18T18:29:37.717Z,75.87
2022-12-18T18:32:07.936Z,75.53
2022-12-18T18:34:45.908Z,74.63
2022-12-18T18:37:15.398Z,75.15
2022-12-18T18:39:45.067Z,75.44
2022-12-18T18:42:14.532Z,75.48
2022-12-18T18:44:48.809Z,75.72
2022-12-18T18:47:18.588Z,75.78
2022-12-18T18:49:50.706Z,76.37
2022-12-18T18:52:20.207Z,76.12
2022-12-18T18:55:11.525Z,75.21
2022-12-18T18:57:39.731Z,75.49
2022-12-18T19:00:12.531Z,75.56
2022-12-18T19:02:42.090Z,74.99
2022-12-18T19:05:14.370Z,75.17
2022-12-18T19:07:44.065Z,75.59
2022-12-18T19:10:13.616Z,75.74
2022-12-18T19:12:55.596Z,75.57
2022-12-18T19:15:25.051Z,75.80
2022-12-18T19:17:54.897Z,76.20
2022-12-18T19:20:27.164Z,76.92
2022-12-18T19:22:58.526Z,76.49
2022-12-18T19:25:40.663Z,75.84
2022-12-18T19:28:21.214Z,74.43
2022-12-18T19:30:55.383Z,74.50
2022-12-18T19:33:45.043Z,74.25
2022-12-18T19:36:21.942Z,73.93
2022-12-18T19:38:51.621Z,75.00
2022-12-18T19:41:21.528Z,76.13
2022-12-18T19:43:51.274Z,76.14
2022-12-18T19:46:21.837Z,75.51
2022-12-18T19:48:51.541Z,76.42
2022-12-18T19:51:24.944Z,75.63
2022-12-18T19:53:58.515Z,74.38
2022-12-18T19:56:29.814Z,74.20
2022-12-18T19:58:59.322Z,73.32
2022-12-18T20:01:29.149Z,73.57
2022-12-18T20:03:59.730Z,74.42
2022-12-18T20:06:33.961Z,73.77
2022-12-18T20:09:04.223Z,72.75
2022-12-18T20:11:33.865Z,71.94
2022-12-18T20:14:08.306Z,71.27
2022-12-18T20:16:38.291Z,70.47
2022-12-18T20:19:07.980Z,70.55
2022-12-18T20:21:40.548Z,70.35
2022-12-18T20:24:11.211Z,70.31
2022-12-18T20:26:40.856Z,69.78
2022-12-18T20:29:10.320Z,69.94
2022-12-18T20:31:39.833Z,69.53
2022-12-18T20:34:09.336Z,69.84
2022-12-18T20:36:41.588Z,69.77
2022-12-18T20:39:13.412Z,69.49
2022-12-18T20:41:44.284Z,68.88
2022-12-18T20:44:21.970Z,69.14
2022-12-18T20:46:54.897Z,69.01
2022-12-18T20:49:24.435Z,68.82
2022-12-18T20:51:57.239Z,68.83
2022-12-18T20:54:27.731Z,69.07
2022-12-18T20:56:57.318Z,70.09
2022-12-18T20:59:26.966Z,70.93
2022-12-18T21:01:56.617Z,71.55
2022-12-18T21:04:26.270Z,70.52
2022-12-18T21:07:02.740Z,70.33
2022-12-18T21:09:38.171Z,71.11
2022-12-18T21:12:21.416Z,72.96
2022-12-18T21:14:50.883Z,73.79
2022-12-18T21:17:20.337Z,73.64
2022-12-18T21:19:49.782Z,72.79
2022-12-18T21:22:22.199Z,72.89
2022-12-18T21:24:51.671Z,72.56
2022-12-18T21:27:21.152Z,71.79
2022-12-18T21:29:50.627Z,71.12
2022-12-18T21:32:22.165Z,71.01
2022-12-18T21:34:54.138Z,72.38
2022-12-18T21:37:26.161Z,73.00
2022-12-18T21:39:55.612Z,74.24
2022-12-18T21:42:37.716Z,74.66
2022-12-18T21:45:07.805Z,74.79
2022-12-18T21:47:37.253Z,73.90
2022-12-18T21:50:10.043Z,73.37
2022-12-18T21:52:42.100Z,72.51
2022-12-18T21:55:12.020Z,72.26
2022-12-18T21:57:41.650Z,71.20
2022-12-18T22:00:18.718Z,71.06
2022-12-18T22:03:12.675Z,71.98
2022-12-18T22:05:38.662Z,72.02
2022-12-18T22:08:10.749Z,71.66
2022-12-18T22:10:40.564Z,71.37
2022-12-18T22:13:10.680Z,71.03
2022-12-18T22:15:40.139Z,70.43
2022-12-18T22:18:09.734Z,70.54
2022-12-18T22:20:39.162Z,71.64
2022-12-18T22:23:11.268Z,72.38
2022-12-18T22:25:40.745Z,73.49
2022-12-18T22:28:22.692Z,73.33
2022-12-18T22:30:54.923Z,73.98
2022-12-18T22:33:29.447Z,73.33
2022-12-18T22:35:58.920Z,72.89
2022-12-18T22:38:30.993Z,72.62
2022-12-18T22:41:00.497Z,72.42
2022-12-18T22:43:30.054Z,73.02
2022-12-18T22:45:59.517Z,72.56
2022-12-18T22:48:29.216Z,72.00
2022-12-18T22:50:59.526Z,71.25
2022-12-18T22:53:31.842Z,71.73
2022-12-18T22:56:03.667Z,72.56
2022-12-18T22:58:33.143Z,72.76
2022-12-18T23:01:02.587Z,72.29
2022-12-18T23:03:32.106Z,71.84
2022-12-18T23:06:08.413Z,71.55
2022-12-18T23:08:40.471Z,71.49
2022-12-18T23:11:10.038Z,71.22
2022-12-18T23:13:39.613Z,71.60
2022-12-18T23:16:09.982Z,70.86
2022-12-18T23:18:39.589Z,71.33
2022-12-18T23:21:09.364Z,71.65
2022-12-18T23:23:42.377Z,71.90
2022-12-18T23:26:12.981Z,71.94
2022-12-18T23:28:42.611Z,71.75
2022-12-18T23:31:15.119Z,72.50
2022-12-18T23:33:46.086Z,72.14
2022-12-18T23:36:15.893Z,72.42
2022-12-18T23:38:51.137Z,71.82
2022-12-18T23:41:21.452Z,71.35
2022-12-18T23:43:51.265Z,72.32
2022-12-18T23:46:21.700Z,71.96
2022-12-18T23:48:51.482Z,72.24
2022-12-18T23:51:23.346Z,71.50
2022-12-18T23:53:55.555Z,71.09
2022-12-18T23:56:25.196Z,70.72
2022-12-18T23:58:54.771Z,69.99
